sensor_id;sensor_type;location;lat;lon;timestamp;P1;durP1;ratioP1;P2;durP2;ratioP2
67882;SDS011;54681;52.486;-1.890;2022-12-07T00:01:04;8.18;;;3.65;;
67882;SDS011;54681;52.486;-1.890;2022-12-07T00:03:34;7.75;;;3.80;;
67882;SDS011;54681;52.486;-1.890;2022-12-07T00:06:02;6.95;;;3.30;;
67882;SDS011;54681;52.486;-1.890;2022-12-07T00:08:30;9.05;;;4.00;;
67882;SDS011;54681;52.486;-1.890;2022-12-07T00:11:04;8.15;;;3.80;;
67882;SDS011;54681;52.486;-1.890;2022-12-07T00:13:31;10.27;;;4.00;;
67882;SDS011;54681;52.486;-1.890;2022-12-07T00:16:03;8.55;;;3.60;;
67882;SDS011;54681;52.486;-1.890;2022-12-07T00:18:30;8.15;;;3.80;;
67882;SDS011;54681;52.486;-1.890;2022-12-07T00:21:00;8.32;;;3.65;;
67882;SDS011;54681;52.486;-1.890;2022-12-07T00:23:28;8.73;;;4.00;;
67882;SDS011;54681;52.486;-1.890;2022-12-07T00:25:53;7.45;;;3.80;;
67882;SDS011;54681;52.486;-1.890;2022-12-07T00:28:19;8.20;;;3.80;;
67882;SDS011;54681;52.486;-1.890;2022-12-07T00:30:44;8.00;;;3.80;;
67882;SDS011;54681;52.486;-1.890;2022-12-07T00:33:09;8.25;;;3.72;;
67882;SDS011;54681;52.486;-1.890;2022-12-07T00:35:35;9.65;;;4.03;;
67882;SDS011;54681;52.486;-1.890;2022-12-07T00:38:00;9.65;;;4.20;;
67882;SDS011;54681;52.486;-1.890;2022-12-07T00:40:25;9.40;;;4.07;;
67882;SDS011;54681;52.486;-1.890;2022-12-07T00:42:51;7.03;;;3.80;;
67882;SDS011;54681;52.486;-1.890;2022-12-07T00:45:16;9.15;;;4.00;;
67882;SDS011;54681;52.486;-1.890;2022-12-07T00:47:42;7.70;;;3.65;;
67882;SDS011;54681;52.486;-1.890;2022-12-07T00:50:08;11.07;;;3.90;;
67882;SDS011;54681;52.486;-1.890;2022-12-07T00:52:33;7.93;;;3.85;;
67882;SDS011;54681;52.486;-1.890;2022-12-07T00:54:59;7.28;;;3.75;;
67882;SDS011;54681;52.486;-1.890;2022-12-07T00:57:24;8.77;;;3.55;;
67882;SDS011;54681;52.486;-1.890;2022-12-07T00:59:49;9.23;;;3.92;;
67882;SDS011;54681;52.486;-1.890;2022-12-07T01:02:15;8.52;;;4.18;;
67882;SDS011;54681;52.486;-1.890;2022-12-07T01:04:40;9.23;;;3.85;;
67882;SDS011;54681;52.486;-1.890;2022-12-07T01:07:06;8.23;;;3.80;;
67882;SDS011;54681;52.486;-1.890;2022-12-07T01:09:31;10.10;;;3.90;;
67882;SDS011;54681;52.486;-1.890;2022-12-07T01:11:57;8.02;;;3.85;;
67882;SDS011;54681;52.486;-1.890;2022-12-07T01:14:22;7.45;;;3.55;;
67882;SDS011;54681;52.486;-1.890;2022-12-07T01:16:48;8.10;;;3.92;;
67882;SDS011;54681;52.486;-1.890;2022-12-07T01:19:13;8.10;;;3.88;;
67882;SDS011;54681;52.486;-1.890;2022-12-07T01:21:39;8.02;;;4.00;;
67882;SDS011;54681;52.486;-1.890;2022-12-07T01:24:05;9.98;;;4.00;;
67882;SDS011;54681;52.486;-1.890;2022-12-07T01:26:34;8.65;;;3.55;;
67882;SDS011;54681;52.486;-1.890;2022-12-07T01:28:59;9.73;;;3.67;;
67882;SDS011;54681;52.486;-1.890;2022-12-07T01:31:26;7.80;;;3.42;;
67882;SDS011;54681;52.486;-1.890;2022-12-07T01:33:53;8.88;;;4.00;;
67882;SDS011;54681;52.486;-1.890;2022-12-07T01:36:23;8.70;;;3.70;;
67882;SDS011;54681;52.486;-1.890;2022-12-07T01:38:51;7.95;;;3.70;;
67882;SDS011;54681;52.486;-1.890;2022-12-07T01:41:21;7.68;;;3.60;;
67882;SDS011;54681;52.486;-1.890;2022-12-07T01:46:43;8.00;;;3.88;;
67882;SDS011;54681;52.486;-1.890;2022-12-07T01:49:33;6.57;;;3.53;;
67882;SDS011;54681;52.486;-1.890;2022-12-07T01:52:07;8.07;;;3.60;;
67882;SDS011;54681;52.486;-1.890;2022-12-07T01:54:39;7.50;;;3.63;;
67882;SDS011;54681;52.486;-1.890;2022-12-07T01:57:06;7.63;;;3.53;;
67882;SDS011;54681;52.486;-1.890;2022-12-07T01:59:33;6.75;;;3.50;;
67882;SDS011;54681;52.486;-1.890;2022-12-07T02:02:00;6.38;;;3.50;;
67882;SDS011;54681;52.486;-1.890;2022-12-07T02:04:29;9.23;;;3.80;;
67882;SDS011;54681;52.486;-1.890;2022-12-07T02:06:55;8.02;;;3.70;;
67882;SDS011;54681;52.486;-1.890;2022-12-07T02:09:21;6.68;;;3.33;;
67882;SDS011;54681;52.486;-1.890;2022-12-07T02:11:47;7.57;;;3.28;;
67882;SDS011;54681;52.486;-1.890;2022-12-07T02:14:13;6.63;;;3.40;;
67882;SDS011;54681;52.486;-1.890;2022-12-07T02:16:42;7.57;;;3.65;;
67882;SDS011;54681;52.486;-1.890;2022-12-07T02:22:26;7.38;;;3.28;;
67882;SDS011;54681;52.486;-1.890;2022-12-07T02:25:23;7.38;;;3.40;;
67882;SDS011;54681;52.486;-1.890;2022-12-07T02:28:06;7.13;;;3.47;;
67882;SDS011;54681;52.486;-1.890;2022-12-07T02:30:52;6.70;;;3.30;;
67882;SDS011;54681;52.486;-1.890;2022-12-07T02:33:24;6.30;;;3.25;;
67882;SDS011;54681;52.486;-1.890;2022-12-07T02:35:56;5.93;;;3.10;;
67882;SDS011;54681;52.486;-1.890;2022-12-07T02:41:25;7.80;;;3.38;;
67882;SDS011;54681;52.486;-1.890;2022-12-07T02:43:55;5.90;;;3.00;;
67882;SDS011;54681;52.486;-1.890;2022-12-07T02:46:25;7.13;;;3.30;;
67882;SDS011;54681;52.486;-1.890;2022-12-07T02:48:54;6.32;;;3.03;;
67882;SDS011;54681;52.486;-1.890;2022-12-07T02:51:21;7.80;;;3.20;;
67882;SDS011;54681;52.486;-1.890;2022-12-07T02:53:47;7.90;;;3.28;;
67882;SDS011;54681;52.486;-1.890;2022-12-07T02:56:27;6.53;;;3.10;;
67882;SDS011;54681;52.486;-1.890;2022-12-07T03:01:59;7.20;;;2.90;;
67882;SDS011;54681;52.486;-1.890;2022-12-07T03:07:46;7.43;;;3.40;;
67882;SDS011;54681;52.486;-1.890;2022-12-07T03:10:33;6.72;;;3.42;;
67882;SDS011;54681;52.486;-1.890;2022-12-07T03:13:14;7.35;;;3.20;;
67882;SDS011;54681;52.486;-1.890;2022-12-07T03:16:02;6.63;;;3.13;;
67882;SDS011;54681;52.486;-1.890;2022-12-07T03:18:49;7.38;;;3.25;;
67882;SDS011;54681;52.486;-1.890;2022-12-07T03:21:20;6.70;;;3.30;;
67882;SDS011;54681;52.486;-1.890;2022-12-07T03:23:54;7.03;;;3.15;;
67882;SDS011;54681;52.486;-1.890;2022-12-07T03:26:24;7.97;;;3.25;;
67882;SDS011;54681;52.486;-1.890;2022-12-07T03:28:57;8.15;;;3.45;;
67882;SDS011;54681;52.486;-1.890;2022-12-07T03:31:29;7.28;;;3.38;;
67882;SDS011;54681;52.486;-1.890;2022-12-07T03:33:59;7.75;;;3.40;;
67882;SDS011;54681;52.486;-1.890;2022-12-07T03:36:37;7.13;;;3.03;;
67882;SDS011;54681;52.486;-1.890;2022-12-07T03:39:13;6.18;;;3.20;;
67882;SDS011;54681;52.486;-1.890;2022-12-07T03:41:47;7.68;;;3.00;;
67882;SDS011;54681;52.486;-1.890;2022-12-07T03:44:14;6.72;;;2.90;;
67882;SDS011;54681;52.486;-1.890;2022-12-07T03:46:44;6.55;;;3.17;;
67882;SDS011;54681;52.486;-1.890;2022-12-07T03:52:08;8.60;;;3.10;;
67882;SDS011;54681;52.486;-1.890;2022-12-07T03:54:45;6.93;;;3.05;;
67882;SDS011;54681;52.486;-1.890;2022-12-07T03:57:17;6.85;;;3.10;;
67882;SDS011;54681;52.486;-1.890;2022-12-07T03:59:43;7.68;;;3.10;;
67882;SDS011;54681;52.486;-1.890;2022-12-07T04:02:11;9.75;;;3.75;;
67882;SDS011;54681;52.486;-1.890;2022-12-07T04:04:38;10.05;;;3.45;;
67882;SDS011;54681;52.486;-1.890;2022-12-07T04:07:04;5.82;;;2.97;;
67882;SDS011;54681;52.486;-1.890;2022-12-07T04:09:29;5.47;;;2.90;;
67882;SDS011;54681;52.486;-1.890;2022-12-07T04:11:55;7.07;;;2.97;;
67882;SDS011;54681;52.486;-1.890;2022-12-07T04:14:20;7.47;;;3.00;;
67882;SDS011;54681;52.486;-1.890;2022-12-07T04:16:48;7.15;;;3.30;;
67882;SDS011;54681;52.486;-1.890;2022-12-07T04:19:16;6.18;;;3.03;;
67882;SDS011;54681;52.486;-1.890;2022-12-07T04:21:43;7.10;;;3.20;;
67882;SDS011;54681;52.486;-1.890;2022-12-07T04:24:08;7.15;;;3.10;;
67882;SDS011;54681;52.486;-1.890;2022-12-07T04:26:34;6.35;;;3.25;;
67882;SDS011;54681;52.486;-1.890;2022-12-07T04:29:00;5.70;;;2.90;;
67882;SDS011;54681;52.486;-1.890;2022-12-07T04:31:25;6.25;;;3.10;;
67882;SDS011;54681;52.486;-1.890;2022-12-07T04:33:50;5.68;;;3.00;;
67882;SDS011;54681;52.486;-1.890;2022-12-07T04:36:16;4.72;;;2.80;;
67882;SDS011;54681;52.486;-1.890;2022-12-07T04:38:42;7.90;;;3.10;;
67882;SDS011;54681;52.486;-1.890;2022-12-07T04:41:08;6.40;;;3.17;;
67882;SDS011;54681;52.486;-1.890;2022-12-07T04:43:34;6.32;;;3.10;;
67882;SDS011;54681;52.486;-1.890;2022-12-07T04:46:00;6.90;;;3.08;;
67882;SDS011;54681;52.486;-1.890;2022-12-07T04:48:26;7.03;;;2.90;;
67882;SDS011;54681;52.486;-1.890;2022-12-07T04:50:52;6.70;;;3.13;;
67882;SDS011;54681;52.486;-1.890;2022-12-07T04:53:17;7.22;;;3.00;;
67882;SDS011;54681;52.486;-1.890;2022-12-07T04:55:44;7.00;;;3.05;;
67882;SDS011;54681;52.486;-1.890;2022-12-07T04:58:10;7.22;;;3.00;;
67882;SDS011;54681;52.486;-1.890;2022-12-07T05:00:36;5.80;;;2.70;;
67882;SDS011;54681;52.486;-1.890;2022-12-07T05:03:02;6.43;;;3.00;;
67882;SDS011;54681;52.486;-1.890;2022-12-07T05:05:27;6.47;;;3.22;;
67882;SDS011;54681;52.486;-1.890;2022-12-07T05:07:53;6.13;;;3.05;;
67882;SDS011;54681;52.486;-1.890;2022-12-07T05:10:18;6.50;;;2.90;;
67882;SDS011;54681;52.486;-1.890;2022-12-07T05:12:44;5.85;;;3.10;;
67882;SDS011;54681;52.486;-1.890;2022-12-07T05:15:10;6.40;;;3.05;;
67882;SDS011;54681;52.486;-1.890;2022-12-07T05:17:37;5.47;;;3.00;;
67882;SDS011;54681;52.486;-1.890;2022-12-07T05:20:02;6.78;;;2.90;;
67882;SDS011;54681;52.486;-1.890;2022-12-07T05:22:28;6.88;;;2.90;;
67882;SDS011;54681;52.486;-1.890;2022-12-07T05:24:54;4.90;;;2.63;;
67882;SDS011;54681;52.486;-1.890;2022-12-07T05:27:20;6.20;;;2.90;;
67882;SDS011;54681;52.486;-1.890;2022-12-07T05:29:46;7.82;;;2.90;;
67882;SDS011;54681;52.486;-1.890;2022-12-07T05:32:11;6.80;;;2.72;;
67882;SDS011;54681;52.486;-1.890;2022-12-07T05:34:37;7.70;;;3.00;;
67882;SDS011;54681;52.486;-1.890;2022-12-07T05:37:02;6.50;;;3.03;;
67882;SDS011;54681;52.486;-1.890;2022-12-07T05:39:28;6.38;;;2.80;;
67882;SDS011;54681;52.486;-1.890;2022-12-07T05:41:53;6.05;;;2.72;;
67882;SDS011;54681;52.486;-1.890;2022-12-07T05:44:37;6.75;;;2.90;;
67882;SDS011;54681;52.486;-1.890;2022-12-07T05:47:03;5.78;;;2.83;;
67882;SDS011;54681;52.486;-1.890;2022-12-07T05:49:29;4.80;;;2.60;;
67882;SDS011;54681;52.486;-1.890;2022-12-07T05:51:54;5.70;;;3.00;;
67882;SDS011;54681;52.486;-1.890;2022-12-07T05:54:20;4.72;;;2.35;;
67882;SDS011;54681;52.486;-1.890;2022-12-07T05:56:45;6.22;;;2.78;;
67882;SDS011;54681;52.486;-1.890;2022-12-07T05:59:10;5.88;;;2.55;;
67882;SDS011;54681;52.486;-1.890;2022-12-07T06:01:47;5.95;;;2.90;;
67882;SDS011;54681;52.486;-1.890;2022-12-07T06:04:12;5.53;;;2.90;;
67882;SDS011;54681;52.486;-1.890;2022-12-07T06:06:37;5.43;;;2.55;;
67882;SDS011;54681;52.486;-1.890;2022-12-07T06:09:03;6.28;;;2.95;;
67882;SDS011;54681;52.486;-1.890;2022-12-07T06:11:29;6.72;;;2.70;;
67882;SDS011;54681;52.486;-1.890;2022-12-07T06:14:07;6.47;;;2.78;;
67882;SDS011;54681;52.486;-1.890;2022-12-07T06:16:32;7.35;;;3.05;;
67882;SDS011;54681;52.486;-1.890;2022-12-07T06:18:58;5.63;;;2.65;;
67882;SDS011;54681;52.486;-1.890;2022-12-07T06:21:23;6.22;;;2.83;;
67882;SDS011;54681;52.486;-1.890;2022-12-07T06:23:50;4.47;;;2.55;;
67882;SDS011;54681;52.486;-1.890;2022-12-07T06:26:16;5.65;;;2.58;;
67882;SDS011;54681;52.486;-1.890;2022-12-07T06:28:41;6.75;;;2.90;;
67882;SDS011;54681;52.486;-1.890;2022-12-07T06:31:06;6.95;;;2.80;;
67882;SDS011;54681;52.486;-1.890;2022-12-07T06:33:32;6.30;;;2.70;;
67882;SDS011;54681;52.486;-1.890;2022-12-07T06:35:58;7.13;;;2.65;;
67882;SDS011;54681;52.486;-1.890;2022-12-07T06:38:23;6.35;;;3.22;;
67882;SDS011;54681;52.486;-1.890;2022-12-07T06:40:49;5.72;;;2.63;;
67882;SDS011;54681;52.486;-1.890;2022-12-07T06:43:15;5.82;;;2.60;;
67882;SDS011;54681;52.486;-1.890;2022-12-07T06:45:40;6.78;;;2.70;;
67882;SDS011;54681;52.486;-1.890;2022-12-07T06:48:06;4.80;;;2.70;;
67882;SDS011;54681;52.486;-1.890;2022-12-07T06:50:31;5.60;;;2.80;;
67882;SDS011;54681;52.486;-1.890;2022-12-07T06:52:57;5.28;;;2.60;;
67882;SDS011;54681;52.486;-1.890;2022-12-07T06:55:22;6.82;;;2.80;;
67882;SDS011;54681;52.486;-1.890;2022-12-07T06:57:47;7.15;;;3.05;;
67882;SDS011;54681;52.486;-1.890;2022-12-07T07:00:13;5.95;;;2.65;;
67882;SDS011;54681;52.486;-1.890;2022-12-07T07:02:39;6.70;;;2.83;;
67882;SDS011;54681;52.486;-1.890;2022-12-07T07:05:04;6.88;;;2.90;;
67882;SDS011;54681;52.486;-1.890;2022-12-07T07:07:30;6.22;;;2.80;;
67882;SDS011;54681;52.486;-1.890;2022-12-07T07:09:55;4.95;;;2.50;;
67882;SDS011;54681;52.486;-1.890;2022-12-07T07:12:21;5.72;;;2.42;;
67882;SDS011;54681;52.486;-1.890;2022-12-07T07:14:46;9.15;;;3.00;;
67882;SDS011;54681;52.486;-1.890;2022-12-07T07:17:12;5.43;;;2.53;;
67882;SDS011;54681;52.486;-1.890;2022-12-07T07:19:37;7.57;;;2.80;;
67882;SDS011;54681;52.486;-1.890;2022-12-07T07:22:03;4.07;;;2.47;;
67882;SDS011;54681;52.486;-1.890;2022-12-07T07:24:28;8.20;;;2.70;;
67882;SDS011;54681;52.486;-1.890;2022-12-07T07:26:54;4.85;;;2.65;;
67882;SDS011;54681;52.486;-1.890;2022-12-07T07:29:19;6.97;;;2.72;;
67882;SDS011;54681;52.486;-1.890;2022-12-07T07:31:44;6.55;;;2.58;;
67882;SDS011;54681;52.486;-1.890;2022-12-07T07:34:10;7.45;;;2.97;;
67882;SDS011;54681;52.486;-1.890;2022-12-07T07:36:35;6.03;;;2.60;;
67882;SDS011;54681;52.486;-1.890;2022-12-07T07:39:01;6.30;;;2.90;;
67882;SDS011;54681;52.486;-1.890;2022-12-07T07:41:26;6.32;;;2.90;;
67882;SDS011;54681;52.486;-1.890;2022-12-07T07:43:52;8.10;;;3.10;;
67882;SDS011;54681;52.486;-1.890;2022-12-07T07:46:17;5.78;;;2.70;;
67882;SDS011;54681;52.486;-1.890;2022-12-07T07:48:42;7.00;;;2.92;;
67882;SDS011;54681;52.486;-1.890;2022-12-07T07:51:08;6.85;;;2.75;;
67882;SDS011;54681;52.486;-1.890;2022-12-07T07:53:33;6.43;;;2.90;;
67882;SDS011;54681;52.486;-1.890;2022-12-07T07:55:59;6.40;;;2.70;;
67882;SDS011;54681;52.486;-1.890;2022-12-07T07:58:24;5.93;;;2.78;;
67882;SDS011;54681;52.486;-1.890;2022-12-07T08:00:50;6.90;;;2.95;;
67882;SDS011;54681;52.486;-1.890;2022-12-07T08:03:16;5.53;;;2.90;;
67882;SDS011;54681;52.486;-1.890;2022-12-07T08:05:41;6.00;;;2.65;;
67882;SDS011;54681;52.486;-1.890;2022-12-07T08:08:07;7.70;;;2.90;;
67882;SDS011;54681;52.486;-1.890;2022-12-07T08:10:32;6.65;;;2.90;;
67882;SDS011;54681;52.486;-1.890;2022-12-07T08:12:59;6.20;;;2.78;;
67882;SDS011;54681;52.486;-1.890;2022-12-07T08:15:38;6.10;;;2.78;;
67882;SDS011;54681;52.486;-1.890;2022-12-07T08:18:05;6.43;;;3.00;;
67882;SDS011;54681;52.486;-1.890;2022-12-07T08:20:31;6.85;;;2.92;;
67882;SDS011;54681;52.486;-1.890;2022-12-07T08:22:58;7.35;;;2.85;;
67882;SDS011;54681;52.486;-1.890;2022-12-07T08:25:24;5.95;;;2.70;;
67882;SDS011;54681;52.486;-1.890;2022-12-07T08:27:50;7.63;;;2.90;;
67882;SDS011;54681;52.486;-1.890;2022-12-07T08:30:16;7.72;;;3.35;;
67882;SDS011;54681;52.486;-1.890;2022-12-07T08:32:41;7.55;;;3.33;;
67882;SDS011;54681;52.486;-1.890;2022-12-07T08:35:08;7.90;;;3.20;;
67882;SDS011;54681;52.486;-1.890;2022-12-07T08:37:34;6.75;;;2.92;;
67882;SDS011;54681;52.486;-1.890;2022-12-07T08:40:00;5.90;;;2.88;;
67882;SDS011;54681;52.486;-1.890;2022-12-07T08:42:25;7.32;;;3.15;;
67882;SDS011;54681;52.486;-1.890;2022-12-07T08:44:55;6.95;;;3.10;;
67882;SDS011;54681;52.486;-1.890;2022-12-07T08:47:21;5.65;;;3.08;;
67882;SDS011;54681;52.486;-1.890;2022-12-07T08:49:48;9.00;;;3.60;;
67882;SDS011;54681;52.486;-1.890;2022-12-07T08:52:16;6.38;;;2.90;;
67882;SDS011;54681;52.486;-1.890;2022-12-07T08:54:42;6.22;;;3.15;;
67882;SDS011;54681;52.486;-1.890;2022-12-07T08:57:08;8.77;;;3.30;;
67882;SDS011;54681;52.486;-1.890;2022-12-07T08:59:35;7.00;;;3.25;;
67882;SDS011;54681;52.486;-1.890;2022-12-07T09:02:01;7.78;;;3.40;;
67882;SDS011;54681;52.486;-1.890;2022-12-07T09:04:27;5.78;;;3.10;;
67882;SDS011;54681;52.486;-1.890;2022-12-07T09:06:53;6.78;;;3.10;;
67882;SDS011;54681;52.486;-1.890;2022-12-07T09:09:19;8.05;;;3.30;;
67882;SDS011;54681;52.486;-1.890;2022-12-07T09:11:45;6.30;;;3.28;;
67882;SDS011;54681;52.486;-1.890;2022-12-07T09:14:11;6.22;;;3.10;;
67882;SDS011;54681;52.486;-1.890;2022-12-07T09:16:37;9.25;;;3.40;;
67882;SDS011;54681;52.486;-1.890;2022-12-07T09:19:02;8.63;;;3.47;;
67882;SDS011;54681;52.486;-1.890;2022-12-07T09:21:28;7.90;;;3.22;;
67882;SDS011;54681;52.486;-1.890;2022-12-07T09:23:53;7.63;;;3.30;;
67882;SDS011;54681;52.486;-1.890;2022-12-07T09:26:19;8.70;;;3.38;;
67882;SDS011;54681;52.486;-1.890;2022-12-07T09:28:44;8.20;;;3.33;;
67882;SDS011;54681;52.486;-1.890;2022-12-07T09:31:10;9.02;;;3.60;;
67882;SDS011;54681;52.486;-1.890;2022-12-07T09:33:35;7.47;;;3.60;;
67882;SDS011;54681;52.486;-1.890;2022-12-07T09:36:01;7.15;;;3.28;;
67882;SDS011;54681;52.486;-1.890;2022-12-07T09:38:27;8.18;;;3.50;;
67882;SDS011;54681;52.486;-1.890;2022-12-07T09:40:54;9.25;;;3.60;;
67882;SDS011;54681;52.486;-1.890;2022-12-07T09:43:22;8.88;;;3.65;;
67882;SDS011;54681;52.486;-1.890;2022-12-07T09:45:51;8.43;;;3.47;;
67882;SDS011;54681;52.486;-1.890;2022-12-07T09:48:26;7.30;;;3.50;;
67882;SDS011;54681;52.486;-1.890;2022-12-07T09:50:58;10.63;;;3.55;;
67882;SDS011;54681;52.486;-1.890;2022-12-07T09:53:26;9.50;;;3.53;;
67882;SDS011;54681;52.486;-1.890;2022-12-07T09:55:55;7.07;;;3.72;;
67882;SDS011;54681;52.486;-1.890;2022-12-07T09:58:22;8.65;;;3.88;;
67882;SDS011;54681;52.486;-1.890;2022-12-07T10:00:53;10.13;;;3.88;;
67882;SDS011;54681;52.486;-1.890;2022-12-07T10:03:21;7.60;;;3.58;;
67882;SDS011;54681;52.486;-1.890;2022-12-07T10:05:47;12.85;;;3.95;;
67882;SDS011;54681;52.486;-1.890;2022-12-07T10:08:15;9.65;;;3.58;;
67882;SDS011;54681;52.486;-1.890;2022-12-07T10:10:42;9.25;;;3.75;;
67882;SDS011;54681;52.486;-1.890;2022-12-07T10:13:10;9.70;;;3.90;;
67882;SDS011;54681;52.486;-1.890;2022-12-07T10:15:42;7.07;;;3.50;;
67882;SDS011;54681;52.486;-1.890;2022-12-07T10:18:27;8.75;;;3.80;;
67882;SDS011;54681;52.486;-1.890;2022-12-07T10:21:03;10.65;;;3.90;;
67882;SDS011;54681;52.486;-1.890;2022-12-07T10:23:36;9.05;;;3.97;;
67882;SDS011;54681;52.486;-1.890;2022-12-07T10:26:21;7.63;;;3.60;;
67882;SDS011;54681;52.486;-1.890;2022-12-07T10:32:04;7.75;;;3.47;;
67882;SDS011;54681;52.486;-1.890;2022-12-07T10:34:36;7.85;;;3.80;;
67882;SDS011;54681;52.486;-1.890;2022-12-07T10:37:19;8.98;;;3.55;;
67882;SDS011;54681;52.486;-1.890;2022-12-07T10:39:47;7.65;;;3.53;;
67882;SDS011;54681;52.486;-1.890;2022-12-07T10:42:16;10.95;;;3.90;;
67882;SDS011;54681;52.486;-1.890;2022-12-07T10:44:44;8.73;;;3.65;;
67882;SDS011;54681;52.486;-1.890;2022-12-07T10:47:16;7.63;;;3.40;;
67882;SDS011;54681;52.486;-1.890;2022-12-07T10:50:08;6.85;;;3.22;;
67882;SDS011;54681;52.486;-1.890;2022-12-07T10:52:58;8.10;;;3.58;;
67882;SDS011;54681;52.486;-1.890;2022-12-07T10:58:31;6.25;;;3.10;;
67882;SDS011;54681;52.486;-1.890;2022-12-07T11:01:18;6.93;;;3.35;;
67882;SDS011;54681;52.486;-1.890;2022-12-07T11:04:02;7.45;;;3.50;;
67882;SDS011;54681;52.486;-1.890;2022-12-07T11:06:57;7.45;;;3.28;;
67882;SDS011;54681;52.486;-1.890;2022-12-07T11:09:36;7.60;;;3.50;;
67882;SDS011;54681;52.486;-1.890;2022-12-07T11:15:26;8.82;;;3.50;;
67882;SDS011;54681;52.486;-1.890;2022-12-07T11:23:21;10.20;;;3.50;;
67882;SDS011;54681;52.486;-1.890;2022-12-07T11:28:49;6.82;;;3.50;;
67882;SDS011;54681;52.486;-1.890;2022-12-07T11:31:36;7.50;;;3.30;;
67882;SDS011;54681;52.486;-1.890;2022-12-07T11:34:33;7.47;;;3.42;;
67882;SDS011;54681;52.486;-1.890;2022-12-07T11:37:16;6.47;;;3.30;;
67882;SDS011;54681;52.486;-1.890;2022-12-07T11:39:50;8.15;;;3.60;;
67882;SDS011;54681;52.486;-1.890;2022-12-07T11:45:10;8.65;;;3.88;;
67882;SDS011;54681;52.486;-1.890;2022-12-07T11:47:47;10.15;;;3.92;;
67882;SDS011;54681;52.486;-1.890;2022-12-07T11:53:00;8.15;;;3.75;;
67882;SDS011;54681;52.486;-1.890;2022-12-07T12:04:27;9.45;;;3.90;;
67882;SDS011;54681;52.486;-1.890;2022-12-07T12:06:57;7.40;;;3.53;;
67882;SDS011;54681;52.486;-1.890;2022-12-07T12:09:29;7.72;;;3.60;;
67882;SDS011;54681;52.486;-1.890;2022-12-07T12:12:06;7.22;;;3.63;;
67882;SDS011;54681;52.486;-1.890;2022-12-07T12:14:50;7.70;;;3.55;;
67882;SDS011;54681;52.486;-1.890;2022-12-07T12:17:38;8.40;;;3.55;;
67882;SDS011;54681;52.486;-1.890;2022-12-07T12:25:42;7.03;;;3.42;;
67882;SDS011;54681;52.486;-1.890;2022-12-07T12:28:31;9.85;;;3.40;;
67882;SDS011;54681;52.486;-1.890;2022-12-07T12:31:13;7.57;;;3.42;;
67882;SDS011;54681;52.486;-1.890;2022-12-07T12:33:46;6.68;;;3.30;;
67882;SDS011;54681;52.486;-1.890;2022-12-07T12:39:09;7.70;;;3.30;;
67882;SDS011;54681;52.486;-1.890;2022-12-07T12:44:39;8.10;;;3.20;;
67882;SDS011;54681;52.486;-1.890;2022-12-07T12:47:38;5.07;;;3.03;;
67882;SDS011;54681;52.486;-1.890;2022-12-07T12:52:51;6.32;;;3.10;;
67882;SDS011;54681;52.486;-1.890;2022-12-07T12:55:21;7.20;;;3.00;;
67882;SDS011;54681;52.486;-1.890;2022-12-07T13:03:57;6.78;;;2.97;;
67882;SDS011;54681;52.486;-1.890;2022-12-07T13:06:32;6.40;;;3.00;;
67882;SDS011;54681;52.486;-1.890;2022-12-07T13:09:00;6.43;;;2.92;;
67882;SDS011;54681;52.486;-1.890;2022-12-07T13:11:32;5.60;;;2.63;;
67882;SDS011;54681;52.486;-1.890;2022-12-07T13:16:57;5.95;;;2.60;;
67882;SDS011;54681;52.486;-1.890;2022-12-07T13:28:07;5.05;;;2.42;;
67882;SDS011;54681;52.486;-1.890;2022-12-07T13:30:45;5.47;;;2.47;;
67882;SDS011;54681;52.486;-1.890;2022-12-07T13:33:15;6.28;;;2.60;;
67882;SDS011;54681;52.486;-1.890;2022-12-07T13:35:43;7.05;;;2.42;;
67882;SDS011;54681;52.486;-1.890;2022-12-07T13:43:29;4.57;;;2.40;;
67882;SDS011;54681;52.486;-1.890;2022-12-07T13:45:57;6.60;;;2.55;;
67882;SDS011;54681;52.486;-1.890;2022-12-07T13:48:30;6.30;;;2.58;;
67882;SDS011;54681;52.486;-1.890;2022-12-07T13:50:58;6.28;;;2.60;;
67882;SDS011;54681;52.486;-1.890;2022-12-07T13:53:24;6.65;;;2.78;;
67882;SDS011;54681;52.486;-1.890;2022-12-07T13:55:55;6.55;;;2.60;;
67882;SDS011;54681;52.486;-1.890;2022-12-07T13:58:23;6.47;;;2.50;;
67882;SDS011;54681;52.486;-1.890;2022-12-07T14:00:49;5.07;;;2.15;;
67882;SDS011;54681;52.486;-1.890;2022-12-07T14:03:25;6.20;;;2.33;;
67882;SDS011;54681;52.486;-1.890;2022-12-07T14:08:40;5.15;;;2.40;;
67882;SDS011;54681;52.486;-1.890;2022-12-07T14:11:12;7.72;;;2.50;;
67882;SDS011;54681;52.486;-1.890;2022-12-07T14:13:51;5.93;;;2.42;;
67882;SDS011;54681;52.486;-1.890;2022-12-07T14:16:39;5.63;;;2.20;;
67882;SDS011;54681;52.486;-1.890;2022-12-07T14:19:06;6.03;;;2.47;;
67882;SDS011;54681;52.486;-1.890;2022-12-07T14:22:09;5.50;;;2.05;;
67882;SDS011;54681;52.486;-1.890;2022-12-07T14:24:46;5.80;;;2.50;;
67882;SDS011;54681;52.486;-1.890;2022-12-07T14:27:20;4.45;;;2.30;;
67882;SDS011;54681;52.486;-1.890;2022-12-07T14:29:47;8.45;;;2.28;;
67882;SDS011;54681;52.486;-1.890;2022-12-07T14:32:18;5.63;;;2.20;;
67882;SDS011;54681;52.486;-1.890;2022-12-07T14:34:53;4.45;;;2.13;;
67882;SDS011;54681;52.486;-1.890;2022-12-07T14:37:20;5.07;;;2.17;;
67882;SDS011;54681;52.486;-1.890;2022-12-07T14:39:45;4.80;;;2.03;;
67882;SDS011;54681;52.486;-1.890;2022-12-07T14:42:11;4.25;;;2.08;;
67882;SDS011;54681;52.486;-1.890;2022-12-07T14:44:36;4.25;;;2.28;;
67882;SDS011;54681;52.486;-1.890;2022-12-07T14:47:02;5.32;;;2.22;;
67882;SDS011;54681;52.486;-1.890;2022-12-07T14:49:27;5.82;;;2.17;;
67882;SDS011;54681;52.486;-1.890;2022-12-07T14:51:52;7.07;;;2.20;;
67882;SDS011;54681;52.486;-1.890;2022-12-07T14:54:18;4.70;;;2.03;;
67882;SDS011;54681;52.486;-1.890;2022-12-07T14:56:45;3.72;;;1.90;;
67882;SDS011;54681;52.486;-1.890;2022-12-07T14:59:15;4.40;;;1.95;;
67882;SDS011;54681;52.486;-1.890;2022-12-07T15:01:40;5.57;;;2.00;;
67882;SDS011;54681;52.486;-1.890;2022-12-07T15:04:06;5.53;;;1.90;;
67882;SDS011;54681;52.486;-1.890;2022-12-07T15:06:31;4.60;;;2.00;;
67882;SDS011;54681;52.486;-1.890;2022-12-07T15:08:57;4.40;;;2.05;;
67882;SDS011;54681;52.486;-1.890;2022-12-07T15:11:22;3.75;;;1.90;;
67882;SDS011;54681;52.486;-1.890;2022-12-07T15:13:48;10.50;;;1.88;;
67882;SDS011;54681;52.486;-1.890;2022-12-07T15:16:28;3.28;;;1.90;;
67882;SDS011;54681;52.486;-1.890;2022-12-07T15:18:54;5.57;;;2.00;;
67882;SDS011;54681;52.486;-1.890;2022-12-07T15:21:19;4.20;;;1.65;;
67882;SDS011;54681;52.486;-1.890;2022-12-07T15:23:46;7.63;;;2.00;;
67882;SDS011;54681;52.486;-1.890;2022-12-07T15:26:12;6.00;;;2.03;;
67882;SDS011;54681;52.486;-1.890;2022-12-07T15:28:38;4.95;;;2.05;;
67882;SDS011;54681;52.486;-1.890;2022-12-07T15:31:04;3.17;;;1.80;;
67882;SDS011;54681;52.486;-1.890;2022-12-07T15:33:29;4.63;;;1.90;;
67882;SDS011;54681;52.486;-1.890;2022-12-07T15:35:55;5.97;;;1.88;;
67882;SDS011;54681;52.486;-1.890;2022-12-07T15:38:21;3.75;;;1.80;;
67882;SDS011;54681;52.486;-1.890;2022-12-07T15:40:47;5.32;;;2.00;;
67882;SDS011;54681;52.486;-1.890;2022-12-07T15:43:12;3.92;;;1.90;;
67882;SDS011;54681;52.486;-1.890;2022-12-07T15:45:49;3.95;;;1.83;;
67882;SDS011;54681;52.486;-1.890;2022-12-07T15:48:15;3.17;;;1.80;;
67882;SDS011;54681;52.486;-1.890;2022-12-07T15:50:40;5.32;;;1.80;;
67882;SDS011;54681;52.486;-1.890;2022-12-07T15:53:05;5.47;;;2.00;;
67882;SDS011;54681;52.486;-1.890;2022-12-07T15:55:31;3.63;;;1.88;;
67882;SDS011;54681;52.486;-1.890;2022-12-07T15:57:56;5.00;;;1.92;;
67882;SDS011;54681;52.486;-1.890;2022-12-07T16:00:21;4.53;;;1.98;;
67882;SDS011;54681;52.486;-1.890;2022-12-07T16:02:47;7.72;;;2.10;;
67882;SDS011;54681;52.486;-1.890;2022-12-07T16:05:12;7.63;;;2.22;;
67882;SDS011;54681;52.486;-1.890;2022-12-07T16:07:38;5.07;;;2.10;;
67882;SDS011;54681;52.486;-1.890;2022-12-07T16:10:03;4.38;;;1.83;;
67882;SDS011;54681;52.486;-1.890;2022-12-07T16:12:29;4.68;;;2.00;;
67882;SDS011;54681;52.486;-1.890;2022-12-07T16:14:54;3.40;;;2.00;;